sensor_id;sensor_type;location;lat;lon;timestamp;pressure;altitude;pressure_sealevel;temperature;humidity
63033;BME280;49121;38.932;-9.018;2023-02-19T00:00:25;111992.50;;;-145.11;56.27
63033;BME280;49121;38.932;-9.018;2023-02-19T00:02:26;111992.50;;;-145.11;55.67
63033;BME280;49121;38.932;-9.018;2023-02-19T00:04:26;111992.50;;;-145.11;55.08
63033;BME280;49121;38.932;-9.018;2023-02-19T00:06:32;111992.50;;;-145.11;54.86
63033;BME280;49121;38.932;-9.018;2023-02-19T00:08:34;111992.50;;;-145.11;54.23
63033;BME280;49121;38.932;-9.018;2023-02-19T00:10:35;111992.50;;;-145.11;53.87
63033;BME280;49121;38.932;-9.018;2023-02-19T00:12:35;111992.50;;;-145.11;53.73
63033;BME280;49121;38.932;-9.018;2023-02-19T00:14:42;111992.50;;;-145.11;53.80
63033;BME280;49121;38.932;-9.018;2023-02-19T00:16:43;111992.50;;;-145.11;53.92
63033;BME280;49121;38.932;-9.018;2023-02-19T00:18:44;111992.50;;;-145.11;54.10
63033;BME280;49121;38.932;-9.018;2023-02-19T00:20:44;111992.50;;;-145.11;54.29
63033;BME280;49121;38.932;-9.018;2023-02-19T00:22:45;111992.50;;;-145.11;54.31
63033;BME280;49121;38.932;-9.018;2023-02-19T00:24:47;111992.50;;;-145.11;54.22
63033;BME280;49121;38.932;-9.018;2023-02-19T00:26:47;111992.50;;;-145.11;54.32
63033;BME280;49121;38.932;-9.018;2023-02-19T00:28:49;111992.50;;;-145.11;54.16
63033;BME280;49121;38.932;-9.018;2023-02-19T00:30:50;111992.50;;;-145.11;54.29
63033;BME280;49121;38.932;-9.018;2023-02-19T00:32:50;111992.50;;;-145.11;54.03
63033;BME280;49121;38.932;-9.018;2023-02-19T00:35:10;111992.50;;;-145.11;53.75
63033;BME280;49121;38.932;-9.018;2023-02-19T00:37:10;111992.50;;;-145.11;53.79
63033;BME280;49121;38.932;-9.018;2023-02-19T00:39:12;111992.50;;;-145.11;53.88
63033;BME280;49121;38.932;-9.018;2023-02-19T00:41:14;111992.50;;;-145.11;53.62
63033;BME280;49121;38.932;-9.018;2023-02-19T00:43:23;111992.50;;;-145.11;53.93
63033;BME280;49121;38.932;-9.018;2023-02-19T00:45:42;111992.50;;;-145.11;54.18
63033;BME280;49121;38.932;-9.018;2023-02-19T00:47:42;111992.50;;;-145.11;53.73
63033;BME280;49121;38.932;-9.018;2023-02-19T00:49:43;111992.50;;;-145.11;52.57
63033;BME280;49121;38.932;-9.018;2023-02-19T00:51:44;111992.50;;;-145.11;51.96
63033;BME280;49121;38.932;-9.018;2023-02-19T00:53:45;111992.50;;;-145.11;51.49
63033;BME280;49121;38.932;-9.018;2023-02-19T00:56:08;111992.50;;;-145.11;51.05
63033;BME280;49121;38.932;-9.018;2023-02-19T00:58:08;111992.50;;;-145.11;50.85
63033;BME280;49121;38.932;-9.018;2023-02-19T01:00:10;111992.50;;;-145.11;51.16
63033;BME280;49121;38.932;-9.018;2023-02-19T01:02:11;111992.50;;;-145.11;52.02
63033;BME280;49121;38.932;-9.018;2023-02-19T01:04:12;111992.50;;;-145.11;52.81
63033;BME280;49121;38.932;-9.018;2023-02-19T01:06:29;111992.50;;;-145.11;53.23
63033;BME280;49121;38.932;-9.018;2023-02-19T01:08:33;111992.50;;;-145.11;53.21
63033;BME280;49121;38.932;-9.018;2023-02-19T01:10:34;111992.50;;;-145.11;53.25
63033;BME280;49121;38.932;-9.018;2023-02-19T01:12:35;111992.50;;;-145.11;53.45
63033;BME280;49121;38.932;-9.018;2023-02-19T01:14:54;111992.50;;;-145.11;53.25
63033;BME280;49121;38.932;-9.018;2023-02-19T01:16:54;111992.50;;;-145.11;53.01
63033;BME280;49121;38.932;-9.018;2023-02-19T01:18:56;111992.50;;;-145.11;52.91
63033;BME280;49121;38.932;-9.018;2023-02-19T01:21:07;111992.50;;;-145.11;53.20
63033;BME280;49121;38.932;-9.018;2023-02-19T01:23:10;111992.50;;;-145.11;53.39
63033;BME280;49121;38.932;-9.018;2023-02-19T01:25:11;111992.50;;;-145.11;53.69
63033;BME280;49121;38.932;-9.018;2023-02-19T01:27:30;111992.50;;;-145.11;53.73
63033;BME280;49121;38.932;-9.018;2023-02-19T01:29:30;111992.50;;;-145.11;53.89
63033;BME280;49121;38.932;-9.018;2023-02-19T01:31:31;111992.50;;;-145.11;53.73
63033;BME280;49121;38.932;-9.018;2023-02-19T01:33:32;111992.50;;;-145.11;54.16
63033;BME280;49121;38.932;-9.018;2023-02-19T01:35:37;111992.50;;;-145.11;54.41
63033;BME280;49121;38.932;-9.018;2023-02-19T01:37:38;111992.50;;;-145.11;54.87
63033;BME280;49121;38.932;-9.018;2023-02-19T01:39:39;111992.50;;;-145.11;54.93
63033;BME280;49121;38.932;-9.018;2023-02-19T01:41:40;111992.50;;;-145.11;55.27
63033;BME280;49121;38.932;-9.018;2023-02-19T01:46:14;111992.50;;;-145.11;55.60
63033;BME280;49121;38.932;-9.018;2023-02-19T01:48:19;111992.50;;;-145.11;55.61
63033;BME280;49121;38.932;-9.018;2023-02-19T01:50:33;111992.50;;;-145.11;55.70
63033;BME280;49121;38.932;-9.018;2023-02-19T01:52:35;111992.50;;;-145.11;55.73
63033;BME280;49121;38.932;-9.018;2023-02-19T01:54:38;111992.50;;;-145.11;55.78
63033;BME280;49121;38.932;-9.018;2023-02-19T01:56:41;111992.50;;;-145.11;55.88
63033;BME280;49121;38.932;-9.018;2023-02-19T01:58:43;111992.50;;;-145.11;56.13
63033;BME280;49121;38.932;-9.018;2023-02-19T02:03:42;111992.50;;;-145.11;56.37
63033;BME280;49121;38.932;-9.018;2023-02-19T02:05:58;111992.50;;;-145.11;56.74
63033;BME280;49121;38.932;-9.018;2023-02-19T02:08:05;111992.50;;;-145.11;56.95
63033;BME280;49121;38.932;-9.018;2023-02-19T02:10:24;111992.50;;;-145.11;56.68
63033;BME280;49121;38.932;-9.018;2023-02-19T02:12:25;111992.50;;;-145.11;56.70
63033;BME280;49121;38.932;-9.018;2023-02-19T02:14:26;111992.50;;;-145.11;57.08
63033;BME280;49121;38.932;-9.018;2023-02-19T02:31:27;111992.50;;;-145.11;57.51
63033;BME280;49121;38.932;-9.018;2023-02-19T02:33:41;111992.50;;;-145.11;57.96
63033;BME280;49121;38.932;-9.018;2023-02-19T02:35:46;111992.50;;;-145.11;57.41
63033;BME280;49121;38.932;-9.018;2023-02-19T02:40:09;111992.50;;;-145.11;57.82
63033;BME280;49121;38.932;-9.018;2023-02-19T02:42:12;111992.50;;;-145.11;57.37
63033;BME280;49121;38.932;-9.018;2023-02-19T02:44:46;111992.50;;;-145.11;57.46
63033;BME280;49121;38.932;-9.018;2023-02-19T02:47:13;111992.50;;;-145.11;57.15
63033;BME280;49121;38.932;-9.018;2023-02-19T02:49:34;111992.50;;;-145.11;57.42
63033;BME280;49121;38.932;-9.018;2023-02-19T02:52:00;111992.50;;;-145.11;58.19
63033;BME280;49121;38.932;-9.018;2023-02-19T02:54:31;111992.50;;;-145.11;58.65
63033;BME280;49121;38.932;-9.018;2023-02-19T02:56:54;111992.50;;;-145.11;58.72
63033;BME280;49121;38.932;-9.018;2023-02-19T02:58:57;111992.50;;;-145.11;57.99
63033;BME280;49121;38.932;-9.018;2023-02-19T03:01:08;111992.50;;;-145.11;58.11
63033;BME280;49121;38.932;-9.018;2023-02-19T03:03:51;111992.50;;;-145.11;57.94
63033;BME280;49121;38.932;-9.018;2023-02-19T03:06:03;111992.50;;;-145.11;57.74
63033;BME280;49121;38.932;-9.018;2023-02-19T03:10:29;111992.50;;;-145.11;58.36
63033;BME280;49121;38.932;-9.018;2023-02-19T03:12:36;111992.50;;;-145.11;58.89
63033;BME280;49121;38.932;-9.018;2023-02-19T03:17:58;111992.50;;;-145.11;59.14
63033;BME280;49121;38.932;-9.018;2023-02-19T03:20:22;111992.50;;;-145.11;58.65
63033;BME280;49121;38.932;-9.018;2023-02-19T03:22:43;111992.50;;;-145.11;58.52
63033;BME280;49121;38.932;-9.018;2023-02-19T03:24:59;111992.50;;;-145.11;57.74
63033;BME280;49121;38.932;-9.018;2023-02-19T03:27:20;111992.50;;;-145.11;57.37
63033;BME280;49121;38.932;-9.018;2023-02-19T03:29:29;111992.50;;;-145.11;57.31
63033;BME280;49121;38.932;-9.018;2023-02-19T03:31:38;111992.50;;;-145.11;57.68
63033;BME280;49121;38.932;-9.018;2023-02-19T03:33:42;111992.50;;;-145.11;58.20
63033;BME280;49121;38.932;-9.018;2023-02-19T03:35:48;111992.50;;;-145.11;58.21
63033;BME280;49121;38.932;-9.018;2023-02-19T03:38:05;111992.50;;;-145.11;58.77
63033;BME280;49121;38.932;-9.018;2023-02-19T03:40:09;111992.50;;;-145.11;58.58
63033;BME280;49121;38.932;-9.018;2023-02-19T03:49:19;111992.50;;;-145.11;58.26
63033;BME280;49121;38.932;-9.018;2023-02-19T03:51:26;111992.50;;;-145.11;58.31
63033;BME280;49121;38.932;-9.018;2023-02-19T03:58:31;111992.50;;;-145.11;58.24
63033;BME280;49121;38.932;-9.018;2023-02-19T04:02:46;111992.50;;;-145.11;58.09
63033;BME280;49121;38.932;-9.018;2023-02-19T04:04:59;111992.50;;;-145.11;57.85
63033;BME280;49121;38.932;-9.018;2023-02-19T04:07:04;111992.50;;;-145.11;57.89
63033;BME280;49121;38.932;-9.018;2023-02-19T04:09:11;111992.50;;;-145.11;57.88
63033;BME280;49121;38.932;-9.018;2023-02-19T04:11:17;111992.50;;;-145.11;57.26
63033;BME280;49121;38.932;-9.018;2023-02-19T04:13:28;111992.50;;;-145.11;57.54
63033;BME280;49121;38.932;-9.018;2023-02-19T04:15:32;111992.50;;;-145.11;57.84
63033;BME280;49121;38.932;-9.018;2023-02-19T04:18:00;111992.50;;;-145.11;57.65
63033;BME280;49121;38.932;-9.018;2023-02-19T04:20:07;111992.50;;;-145.11;57.25
63033;BME280;49121;38.932;-9.018;2023-02-19T04:22:14;111992.50;;;-145.11;57.28
63033;BME280;49121;38.932;-9.018;2023-02-19T04:24:47;111992.50;;;-145.11;56.87
63033;BME280;49121;38.932;-9.018;2023-02-19T04:26:45;111992.50;;;-145.11;56.61
63033;BME280;49121;38.932;-9.018;2023-02-19T04:28:46;111992.50;;;-145.11;55.55
63033;BME280;49121;38.932;-9.018;2023-02-19T04:30:47;111992.50;;;-145.11;55.31
63033;BME280;49121;38.932;-9.018;2023-02-19T04:32:47;111992.50;;;-145.11;55.41
63033;BME280;49121;38.932;-9.018;2023-02-19T04:34:48;111992.50;;;-145.11;55.87
63033;BME280;49121;38.932;-9.018;2023-02-19T04:36:48;111992.50;;;-145.11;56.01
63033;BME280;49121;38.932;-9.018;2023-02-19T04:38:49;111992.50;;;-145.11;56.10
63033;BME280;49121;38.932;-9.018;2023-02-19T04:40:50;111992.50;;;-145.11;56.56
63033;BME280;49121;38.932;-9.018;2023-02-19T04:43:02;111992.50;;;-145.11;56.51
63033;BME280;49121;38.932;-9.018;2023-02-19T04:45:03;111992.50;;;-145.11;56.50
63033;BME280;49121;38.932;-9.018;2023-02-19T04:47:04;111992.50;;;-145.11;55.56
63033;BME280;49121;38.932;-9.018;2023-02-19T04:49:04;111992.50;;;-145.11;55.71
63033;BME280;49121;38.932;-9.018;2023-02-19T04:51:05;111992.50;;;-145.11;55.37
63033;BME280;49121;38.932;-9.018;2023-02-19T04:53:06;111992.50;;;-145.11;55.41
63033;BME280;49121;38.932;-9.018;2023-02-19T04:55:07;111992.50;;;-145.11;55.72
63033;BME280;49121;38.932;-9.018;2023-02-19T04:57:08;111992.50;;;-145.11;55.08
63033;BME280;49121;38.932;-9.018;2023-02-19T04:59:10;111992.50;;;-145.11;55.67
63033;BME280;49121;38.932;-9.018;2023-02-19T05:01:11;111992.50;;;-145.11;55.31
63033;BME280;49121;38.932;-9.018;2023-02-19T05:05:43;111992.50;;;-145.11;56.78
63033;BME280;49121;38.932;-9.018;2023-02-19T05:07:43;111992.50;;;-145.11;57.45
63033;BME280;49121;38.932;-9.018;2023-02-19T05:09:44;111992.50;;;-145.11;57.99
63033;BME280;49121;38.932;-9.018;2023-02-19T05:11:45;111992.50;;;-145.11;58.60
63033;BME280;49121;38.932;-9.018;2023-02-19T05:13:45;111992.50;;;-145.11;58.88
63033;BME280;49121;38.932;-9.018;2023-02-19T05:15:58;111992.50;;;-145.11;59.33
63033;BME280;49121;38.932;-9.018;2023-02-19T05:17:59;111992.50;;;-145.11;59.75
63033;BME280;49121;38.932;-9.018;2023-02-19T05:20:00;111992.50;;;-145.11;59.81
63033;BME280;49121;38.932;-9.018;2023-02-19T05:22:02;111992.50;;;-145.11;60.02
63033;BME280;49121;38.932;-9.018;2023-02-19T05:24:02;111992.50;;;-145.11;60.23
63033;BME280;49121;38.932;-9.018;2023-02-19T05:26:06;111992.50;;;-145.11;60.16
63033;BME280;49121;38.932;-9.018;2023-02-19T05:28:08;111992.50;;;-145.11;60.24
63033;BME280;49121;38.932;-9.018;2023-02-19T05:30:17;111992.50;;;-145.11;59.87
63033;BME280;49121;38.932;-9.018;2023-02-19T05:32:18;111992.50;;;-145.11;60.02
63033;BME280;49121;38.932;-9.018;2023-02-19T05:34:19;111992.50;;;-145.11;60.06
63033;BME280;49121;38.932;-9.018;2023-02-19T05:36:20;111992.50;;;-145.11;60.38
63033;BME280;49121;38.932;-9.018;2023-02-19T05:38:21;111992.50;;;-145.11;60.13
63033;BME280;49121;38.932;-9.018;2023-02-19T05:40:22;111992.50;;;-145.11;60.04
63033;BME280;49121;38.932;-9.018;2023-02-19T05:42:23;111992.50;;;-145.11;59.81
63033;BME280;49121;38.932;-9.018;2023-02-19T05:44:23;111992.50;;;-145.11;59.77
63033;BME280;49121;38.932;-9.018;2023-02-19T05:46:27;111992.50;;;-145.11;59.95
63033;BME280;49121;38.932;-9.018;2023-02-19T05:50:48;111992.50;;;-145.11;59.92
63033;BME280;49121;38.932;-9.018;2023-02-19T05:52:48;111992.50;;;-145.11;59.79
63033;BME280;49121;38.932;-9.018;2023-02-19T05:54:49;111992.50;;;-145.11;59.86
63033;BME280;49121;38.932;-9.018;2023-02-19T05:56:49;111992.50;;;-145.11;60.14
63033;BME280;49121;38.932;-9.018;2023-02-19T06:01:15;111992.50;;;-145.11;60.18
63033;BME280;49121;38.932;-9.018;2023-02-19T06:03:16;111992.50;;;-145.11;60.06
63033;BME280;49121;38.932;-9.018;2023-02-19T06:05:17;111992.50;;;-145.11;60.52
63033;BME280;49121;38.932;-9.018;2023-02-19T06:07:17;111992.50;;;-145.11;60.19
63033;BME280;49121;38.932;-9.018;2023-02-19T06:09:18;111992.50;;;-145.11;60.14
63033;BME280;49121;38.932;-9.018;2023-02-19T06:11:19;111992.50;;;-145.11;59.69
63033;BME280;49121;38.932;-9.018;2023-02-19T06:13:19;111992.50;;;-145.11;59.67
63033;BME280;49121;38.932;-9.018;2023-02-19T06:15:20;111992.50;;;-145.11;59.87
63033;BME280;49121;38.932;-9.018;2023-02-19T06:17:21;111992.50;;;-145.11;59.67
63033;BME280;49121;38.932;-9.018;2023-02-19T06:19:21;111992.50;;;-145.11;59.86
63033;BME280;49121;38.932;-9.018;2023-02-19T06:21:22;111992.50;;;-145.11;59.62
63033;BME280;49121;38.932;-9.018;2023-02-19T06:23:23;111992.50;;;-145.11;60.18
63033;BME280;49121;38.932;-9.018;2023-02-19T06:25:26;111992.50;;;-145.11;59.92
63033;BME280;49121;38.932;-9.018;2023-02-19T06:27:27;111992.50;;;-145.11;59.46
63033;BME280;49121;38.932;-9.018;2023-02-19T06:29:28;111992.50;;;-145.11;59.28
63033;BME280;49121;38.932;-9.018;2023-02-19T06:31:28;111992.50;;;-145.11;59.33
63033;BME280;49121;38.932;-9.018;2023-02-19T06:33:29;111992.50;;;-145.11;59.56
63033;BME280;49121;38.932;-9.018;2023-02-19T06:35:30;111992.50;;;-145.11;59.50
63033;BME280;49121;38.932;-9.018;2023-02-19T06:37:30;111992.50;;;-145.11;59.54
63033;BME280;49121;38.932;-9.018;2023-02-19T06:39:31;111992.50;;;-145.11;59.62
63033;BME280;49121;38.932;-9.018;2023-02-19T06:41:32;111992.50;;;-145.11;59.20
63033;BME280;49121;38.932;-9.018;2023-02-19T06:43:33;111992.50;;;-145.11;59.04
63033;BME280;49121;38.932;-9.018;2023-02-19T06:45:34;111992.50;;;-145.11;59.13
63033;BME280;49121;38.932;-9.018;2023-02-19T06:47:35;111992.50;;;-145.11;59.22
63033;BME280;49121;38.932;-9.018;2023-02-19T06:51:56;111992.50;;;-145.11;58.91
63033;BME280;49121;38.932;-9.018;2023-02-19T06:53:58;111992.50;;;-145.11;59.14
63033;BME280;49121;38.932;-9.018;2023-02-19T06:58:21;111992.50;;;-145.11;59.22
63033;BME280;49121;38.932;-9.018;2023-02-19T07:00:40;111992.50;;;-145.11;59.78
63033;BME280;49121;38.932;-9.018;2023-02-19T07:05:00;111992.50;;;-145.11;59.48
63033;BME280;49121;38.932;-9.018;2023-02-19T07:07:01;111992.50;;;-145.11;59.45
63033;BME280;49121;38.932;-9.018;2023-02-19T07:09:02;111992.50;;;-145.11;59.50
63033;BME280;49121;38.932;-9.018;2023-02-19T07:11:03;111992.50;;;-145.11;59.57
63033;BME280;49121;38.932;-9.018;2023-02-19T07:13:04;111992.50;;;-145.11;59.66
63033;BME280;49121;38.932;-9.018;2023-02-19T07:15:05;111992.50;;;-145.11;59.87
63033;BME280;49121;38.932;-9.018;2023-02-19T07:17:06;111992.50;;;-145.11;59.33
63033;BME280;49121;38.932;-9.018;2023-02-19T07:19:06;111992.50;;;-145.11;58.88
63033;BME280;49121;38.932;-9.018;2023-02-19T07:21:11;111992.50;;;-145.11;58.96
63033;BME280;49121;38.932;-9.018;2023-02-19T07:23:12;111992.50;;;-145.11;58.92
63033;BME280;49121;38.932;-9.018;2023-02-19T07:25:12;111992.50;;;-145.11;58.94
63033;BME280;49121;38.932;-9.018;2023-02-19T07:27:13;111992.50;;;-145.11;59.00
63033;BME280;49121;38.932;-9.018;2023-02-19T07:29:13;111992.50;;;-145.11;58.86
63033;BME280;49121;38.932;-9.018;2023-02-19T07:31:15;111992.50;;;-145.11;58.60
63033;BME280;49121;38.932;-9.018;2023-02-19T07:33:35;111992.50;;;-145.11;57.70
63033;BME280;49121;38.932;-9.018;2023-02-19T07:35:36;111992.50;;;-145.11;57.28
63033;BME280;49121;38.932;-9.018;2023-02-19T07:37:37;111992.50;;;-145.11;57.52
63033;BME280;49121;38.932;-9.018;2023-02-19T07:39:37;111992.50;;;-145.11;57.63
63033;BME280;49121;38.932;-9.018;2023-02-19T07:41:38;111992.50;;;-145.11;57.57
63033;BME280;49121;38.932;-9.018;2023-02-19T07:43:39;111992.50;;;-145.11;57.99
63033;BME280;49121;38.932;-9.018;2023-02-19T07:45:40;111992.50;;;-145.11;57.99
63033;BME280;49121;38.932;-9.018;2023-02-19T07:47:40;111992.50;;;-145.11;57.76
63033;BME280;49121;38.932;-9.018;2023-02-19T07:49:41;111992.50;;;-145.11;58.05
63033;BME280;49121;38.932;-9.018;2023-02-19T07:51:42;111992.50;;;-145.11;57.93
63033;BME280;49121;38.932;-9.018;2023-02-19T07:53:45;111992.50;;;-145.11;58.00
63033;BME280;49121;38.932;-9.018;2023-02-19T07:55:46;111992.50;;;-145.11;58.07
63033;BME280;49121;38.932;-9.018;2023-02-19T07:58:05;111992.50;;;-145.11;57.54
63033;BME280;49121;38.932;-9.018;2023-02-19T08:00:07;111992.50;;;-145.11;56.98
63033;BME280;49121;38.932;-9.018;2023-02-19T08:02:17;111992.50;;;-145.11;56.44
63033;BME280;49121;38.932;-9.018;2023-02-19T08:04:36;111992.50;;;-145.11;54.67
63033;BME280;49121;38.932;-9.018;2023-02-19T08:06:36;111992.50;;;-145.11;53.83
63033;BME280;49121;38.932;-9.018;2023-02-19T08:08:38;111992.50;;;-145.11;53.53
63033;BME280;49121;38.932;-9.018;2023-02-19T08:10:39;111992.50;;;-145.11;53.64
63033;BME280;49121;38.932;-9.018;2023-02-19T08:12:59;111992.50;;;-145.11;54.05
63033;BME280;49121;38.932;-9.018;2023-02-19T08:15:18;111992.50;;;-145.11;54.39
63033;BME280;49121;38.932;-9.018;2023-02-19T08:17:19;111992.50;;;-145.11;54.53
63033;BME280;49121;38.932;-9.018;2023-02-19T08:19:19;111992.50;;;-145.11;53.90
63033;BME280;49121;38.932;-9.018;2023-02-19T08:21:20;111992.50;;;-145.11;53.32
63033;BME280;49121;38.932;-9.018;2023-02-19T08:23:21;111992.50;;;-145.11;53.49
63033;BME280;49121;38.932;-9.018;2023-02-19T08:25:22;111992.50;;;-145.11;53.06
63033;BME280;49121;38.932;-9.018;2023-02-19T08:27:22;111992.50;;;-145.11;52.95
63033;BME280;49121;38.932;-9.018;2023-02-19T08:29:23;111992.50;;;-145.11;51.65
63033;BME280;49121;38.932;-9.018;2023-02-19T08:31:24;111992.50;;;-145.11;50.84
63033;BME280;49121;38.932;-9.018;2023-02-19T08:33:24;111992.50;;;-145.11;50.15
63033;BME280;49121;38.932;-9.018;2023-02-19T08:35:25;111992.50;;;-145.11;49.92
63033;BME280;49121;38.932;-9.018;2023-02-19T08:37:26;111992.50;;;-145.11;49.80
63033;BME280;49121;38.932;-9.018;2023-02-19T08:39:45;111992.50;;;-145.11;49.84
63033;BME280;49121;38.932;-9.018;2023-02-19T08:41:45;111992.50;;;-145.11;48.48
63033;BME280;49121;38.932;-9.018;2023-02-19T08:43:47;111992.50;;;-145.11;48.43
63033;BME280;49121;38.932;-9.018;2023-02-19T08:45:47;111992.50;;;-145.11;48.16
63033;BME280;49121;38.932;-9.018;2023-02-19T08:47:48;111992.50;;;-145.11;48.18
63033;BME280;49121;38.932;-9.018;2023-02-19T08:49:48;111992.50;;;-145.11;47.92
63033;BME280;49121;38.932;-9.018;2023-02-19T08:51:49;111992.50;;;-145.11;47.38
63033;BME280;49121;38.932;-9.018;2023-02-19T08:53:49;111992.50;;;-145.11;47.68
63033;BME280;49121;38.932;-9.018;2023-02-19T08:55:54;111992.50;;;-145.11;47.43
63033;BME280;49121;38.932;-9.018;2023-02-19T08:57:54;111992.50;;;-145.11;46.78
63033;BME280;49121;38.932;-9.018;2023-02-19T08:59:55;111992.50;;;-145.11;47.21
63033;BME280;49121;38.932;-9.018;2023-02-19T09:01:59;111992.50;;;-145.11;47.22
63033;BME280;49121;38.932;-9.018;2023-02-19T09:04:00;111992.50;;;-145.11;47.22
63033;BME280;49121;38.932;-9.018;2023-02-19T09:06:01;111992.50;;;-145.11;46.38
63033;BME280;49121;38.932;-9.018;2023-02-19T09:08:01;111992.50;;;-145.11;46.26
63033;BME280;49121;38.932;-9.018;2023-02-19T09:10:02;111992.50;;;-145.11;46.22
63033;BME280;49121;38.932;-9.018;2023-02-19T09:12:05;111992.50;;;-145.11;46.27
63033;BME280;49121;38.932;-9.018;2023-02-19T09:14:06;111992.50;;;-145.11;46.30
63033;BME280;49121;38.932;-9.018;2023-02-19T09:16:07;111992.50;;;-145.11;45.59
63033;BME280;49121;38.932;-9.018;2023-02-19T09:18:07;111992.50;;;-145.11;45.79
63033;BME280;49121;38.932;-9.018;2023-02-19T09:20:08;111992.50;;;-145.11;45.87
63033;BME280;49121;38.932;-9.018;2023-02-19T09:22:09;111992.50;;;-145.11;45.79
63033;BME280;49121;38.932;-9.018;2023-02-19T09:24:10;111992.50;;;-145.11;46.08
63033;BME280;49121;38.932;-9.018;2023-02-19T09:26:11;111992.50;;;-145.11;45.82
63033;BME280;49121;38.932;-9.018;2023-02-19T09:28:13;111992.50;;;-145.11;46.41
63033;BME280;49121;38.932;-9.018;2023-02-19T09:30:14;111992.50;;;-145.11;46.30
63033;BME280;49121;38.932;-9.018;2023-02-19T09:32:15;111992.50;;;-145.11;46.13
63033;BME280;49121;38.932;-9.018;2023-02-19T09:34:16;111992.50;;;-145.11;46.07
63033;BME280;49121;38.932;-9.018;2023-02-19T09:36:16;111992.50;;;-145.11;46.19
63033;BME280;49121;38.932;-9.018;2023-02-19T09:38:18;111992.50;;;-145.11;46.12
63033;BME280;49121;38.932;-9.018;2023-02-19T09:40:21;111992.50;;;-145.11;45.90
63033;BME280;49121;38.932;-9.018;2023-02-19T09:42:27;111992.50;;;-145.11;45.93
63033;BME280;49121;38.932;-9.018;2023-02-19T09:44:35;111992.50;;;-145.11;46.24
63033;BME280;49121;38.932;-9.018;2023-02-19T09:46:41;111992.50;;;-145.11;46.38
63033;BME280;49121;38.932;-9.018;2023-02-19T09:48:42;111992.50;;;-145.11;46.33
63033;BME280;49121;38.932;-9.018;2023-02-19T09:50:44;111992.50;;;-145.11;46.08
63033;BME280;49121;38.932;-9.018;2023-02-19T09:52:57;111992.50;;;-145.11;46.20
63033;BME280;49121;38.932;-9.018;2023-02-19T09:55:17;111992.50;;;-145.11;44.87
63033;BME280;49121;38.932;-9.018;2023-02-19T09:57:20;111992.50;;;-145.11;45.79
63033;BME280;49121;38.932;-9.018;2023-02-19T09:59:27;111992.50;;;-145.11;46.30
63033;BME280;49121;38.932;-9.018;2023-02-19T10:01:38;111992.50;;;-145.11;45.41
63033;BME280;49121;38.932;-9.018;2023-02-19T10:03:43;111992.50;;;-145.11;45.89
63033;BME280;49121;38.932;-9.018;2023-02-19T10:05:46;111992.50;;;-145.11;45.80
63033;BME280;49121;38.932;-9.018;2023-02-19T10:07:50;111992.50;;;-145.11;45.56
63033;BME280;49121;38.932;-9.018;2023-02-19T10:09:56;111992.50;;;-145.11;45.67
63033;BME280;49121;38.932;-9.018;2023-02-19T10:11:58;111992.50;;;-145.11;45.49
63033;BME280;49121;38.932;-9.018;2023-02-19T10:14:06;111992.50;;;-145.11;45.78
63033;BME280;49121;38.932;-9.018;2023-02-19T10:16:14;111992.50;;;-145.11;45.39
63033;BME280;49121;38.932;-9.018;2023-02-19T10:18:20;111992.50;;;-145.11;45.47
63033;BME280;49121;38.932;-9.018;2023-02-19T10:20:23;111992.50;;;-145.11;45.67
63033;BME280;49121;38.932;-9.018;2023-02-19T10:22:27;111992.50;;;-145.11;45.53
63033;BME280;49121;38.932;-9.018;2023-02-19T10:24:27;111992.50;;;-145.11;45.79
63033;BME280;49121;38.932;-9.018;2023-02-19T10:26:31;111992.50;;;-145.11;45.67
63033;BME280;49121;38.932;-9.018;2023-02-19T10:31:23;111992.50;;;-145.11;45.49
63033;BME280;49121;38.932;-9.018;2023-02-19T10:33:51;111992.50;;;-145.11;45.14
63033;BME280;49121;38.932;-9.018;2023-02-19T10:35:57;111992.50;;;-145.11;44.89
63033;BME280;49121;38.932;-9.018;2023-02-19T10:38:03;111992.50;;;-145.11;44.77
63033;BME280;49121;38.932;-9.018;2023-02-19T10:43:03;111992.50;;;-145.11;44.04
63033;BME280;49121;38.932;-9.018;2023-02-19T10:45:04;111992.50;;;-145.11;44.19
63033;BME280;49121;38.932;-9.018;2023-02-19T10:47:05;111992.50;;;-145.11;43.62
63033;BME280;49121;38.932;-9.018;2023-02-19T10:49:41;111992.50;;;-145.11;43.36
63033;BME280;49121;38.932;-9.018;2023-02-19T10:51:45;111992.50;;;-145.11;43.30
63033;BME280;49121;38.932;-9.018;2023-02-19T10:56:06;111992.50;;;-145.11;43.71
63033;BME280;49121;38.932;-9.018;2023-02-19T10:58:25;111992.50;;;-145.11;43.56
63033;BME280;49121;38.932;-9.018;2023-02-19T11:00:29;111992.50;;;-145.11;43.36
63033;BME280;49121;38.932;-9.018;2023-02-19T11:02:30;111992.50;;;-145.11;43.34
63033;BME280;49121;38.932;-9.018;2023-02-19T11:04:32;111992.50;;;-145.11;42.47
63033;BME280;49121;38.932;-9.018;2023-02-19T11:06:34;111992.50;;;-145.11;42.43
63033;BME280;49121;38.932;-9.018;2023-02-19T11:08:57;111992.50;;;-145.11;42.48
63033;BME280;49121;38.932;-9.018;2023-02-19T11:10:59;111992.50;;;-145.11;42.23
63033;BME280;49121;38.932;-9.018;2023-02-19T11:13:02;111992.50;;;-145.11;41.50
63033;BME280;49121;38.932;-9.018;2023-02-19T11:17:25;111992.50;;;-145.11;41.53
63033;BME280;49121;38.932;-9.018;2023-02-19T11:19:42;111992.50;;;-145.11;40.91
63033;BME280;49121;38.932;-9.018;2023-02-19T11:21:43;111992.50;;;-145.11;40.56
63033;BME280;49121;38.932;-9.018;2023-02-19T11:23:44;111992.50;;;-145.11;40.05
63033;BME280;49121;38.932;-9.018;2023-02-19T11:25:48;111992.50;;;-145.11;40.73
63033;BME280;49121;38.932;-9.018;2023-02-19T11:28:00;111992.50;;;-145.11;40.75
63033;BME280;49121;38.932;-9.018;2023-02-19T11:30:44;111992.50;;;-145.11;41.34
63033;BME280;49121;38.932;-9.018;2023-02-19T11:32:45;111992.50;;;-145.11;41.10
63033;BME280;49121;38.932;-9.018;2023-02-19T11:35:13;111992.50;;;-145.11;39.90